sensor_id;sensor_type;location;lat;lon;timestamp;P1;durP1;ratioP1;P2;durP2;ratioP2
18166;SDS011;9208;42.688;23.404;2023-03-11T00:00:08;8.07;;;7.33;;
18166;SDS011;9208;42.688;23.404;2023-03-11T00:02:38;8.93;;;8.03;;
18166;SDS011;9208;42.688;23.404;2023-03-11T00:05:05;12.53;;;11.00;;
18166;SDS011;9208;42.688;23.404;2023-03-11T00:07:31;15.50;;;13.90;;
18166;SDS011;9208;42.688;23.404;2023-03-11T00:09:56;14.87;;;13.27;;
18166;SDS011;9208;42.688;23.404;2023-03-11T00:12:22;10.47;;;9.43;;
18166;SDS011;9208;42.688;23.404;2023-03-11T00:14:48;6.10;;;5.13;;
18166;SDS011;9208;42.688;23.404;2023-03-11T00:17:13;4.00;;;3.60;;
18166;SDS011;9208;42.688;23.404;2023-03-11T00:19:39;1.87;;;1.67;;
18166;SDS011;9208;42.688;23.404;2023-03-11T00:22:04;1.90;;;1.80;;
18166;SDS011;9208;42.688;23.404;2023-03-11T00:24:29;2.17;;;1.77;;
18166;SDS011;9208;42.688;23.404;2023-03-11T00:26:55;1.97;;;1.87;;
18166;SDS011;9208;42.688;23.404;2023-03-11T00:29:20;2.00;;;1.77;;
18166;SDS011;9208;42.688;23.404;2023-03-11T00:31:48;1.87;;;1.70;;
18166;SDS011;9208;42.688;23.404;2023-03-11T00:34:14;1.63;;;1.53;;
18166;SDS011;9208;42.688;23.404;2023-03-11T00:36:39;1.80;;;1.70;;
18166;SDS011;9208;42.688;23.404;2023-03-11T00:39:04;2.10;;;1.70;;
18166;SDS011;9208;42.688;23.404;2023-03-11T00:41:35;2.27;;;2.07;;
18166;SDS011;9208;42.688;23.404;2023-03-11T00:44:00;3.37;;;2.20;;
18166;SDS011;9208;42.688;23.404;2023-03-11T00:46:26;3.13;;;2.83;;
18166;SDS011;9208;42.688;23.404;2023-03-11T00:48:53;2.53;;;2.30;;
18166;SDS011;9208;42.688;23.404;2023-03-11T00:51:19;2.70;;;2.50;;
18166;SDS011;9208;42.688;23.404;2023-03-11T00:53:44;2.10;;;1.93;;
18166;SDS011;9208;42.688;23.404;2023-03-11T00:56:10;1.60;;;1.50;;
18166;SDS011;9208;42.688;23.404;2023-03-11T00:58:38;1.60;;;1.50;;
18166;SDS011;9208;42.688;23.404;2023-03-11T01:01:14;2.03;;;1.90;;
18166;SDS011;9208;42.688;23.404;2023-03-11T01:03:42;2.37;;;1.60;;
18166;SDS011;9208;42.688;23.404;2023-03-11T01:06:08;2.23;;;1.90;;
18166;SDS011;9208;42.688;23.404;2023-03-11T01:08:33;3.40;;;1.90;;
18166;SDS011;9208;42.688;23.404;2023-03-11T01:10:59;2.20;;;1.87;;
18166;SDS011;9208;42.688;23.404;2023-03-11T01:13:26;1.83;;;1.57;;
18166;SDS011;9208;42.688;23.404;2023-03-11T01:15:52;2.70;;;1.30;;
18166;SDS011;9208;42.688;23.404;2023-03-11T01:18:18;1.63;;;1.40;;
18166;SDS011;9208;42.688;23.404;2023-03-11T01:20:44;1.60;;;1.50;;
18166;SDS011;9208;42.688;23.404;2023-03-11T01:23:10;1.20;;;1.20;;
18166;SDS011;9208;42.688;23.404;2023-03-11T01:25:36;1.50;;;1.40;;
18166;SDS011;9208;42.688;23.404;2023-03-11T01:28:05;1.20;;;1.20;;
18166;SDS011;9208;42.688;23.404;2023-03-11T01:30:32;2.63;;;1.20;;
18166;SDS011;9208;42.688;23.404;2023-03-11T01:32:59;1.20;;;1.20;;
18166;SDS011;9208;42.688;23.404;2023-03-11T01:35:26;1.43;;;1.10;;
18166;SDS011;9208;42.688;23.404;2023-03-11T01:37:54;1.47;;;1.13;;
18166;SDS011;9208;42.688;23.404;2023-03-11T01:40:20;1.07;;;1.07;;
18166;SDS011;9208;42.688;23.404;2023-03-11T01:42:50;1.33;;;1.23;;
18166;SDS011;9208;42.688;23.404;2023-03-11T01:48:09;1.50;;;1.40;;
18166;SDS011;9208;42.688;23.404;2023-03-11T01:50:37;1.83;;;1.73;;
18166;SDS011;9208;42.688;23.404;2023-03-11T01:53:05;2.77;;;2.43;;
18166;SDS011;9208;42.688;23.404;2023-03-11T01:55:31;2.47;;;2.03;;
18166;SDS011;9208;42.688;23.404;2023-03-11T01:57:58;2.93;;;2.13;;
18166;SDS011;9208;42.688;23.404;2023-03-11T02:00:26;2.33;;;2.13;;
18166;SDS011;9208;42.688;23.404;2023-03-11T02:02:52;2.23;;;2.00;;
18166;SDS011;9208;42.688;23.404;2023-03-11T02:05:21;2.10;;;2.00;;
18166;SDS011;9208;42.688;23.404;2023-03-11T02:07:50;3.43;;;2.40;;
18166;SDS011;9208;42.688;23.404;2023-03-11T02:10:18;2.23;;;2.00;;
18166;SDS011;9208;42.688;23.404;2023-03-11T02:12:44;2.30;;;2.00;;
18166;SDS011;9208;42.688;23.404;2023-03-11T02:15:11;2.30;;;2.10;;
18166;SDS011;9208;42.688;23.404;2023-03-11T02:17:37;2.57;;;2.30;;
18166;SDS011;9208;42.688;23.404;2023-03-11T02:20:24;2.37;;;1.93;;
18166;SDS011;9208;42.688;23.404;2023-03-11T02:22:56;2.43;;;1.97;;
18166;SDS011;9208;42.688;23.404;2023-03-11T02:28:09;3.90;;;2.27;;
18166;SDS011;9208;42.688;23.404;2023-03-11T02:30:41;2.30;;;2.10;;
18166;SDS011;9208;42.688;23.404;2023-03-11T02:33:08;3.03;;;2.13;;
18166;SDS011;9208;42.688;23.404;2023-03-11T02:35:34;2.60;;;2.40;;
18166;SDS011;9208;42.688;23.404;2023-03-11T02:38:00;1.90;;;1.53;;
18166;SDS011;9208;42.688;23.404;2023-03-11T02:42:54;1.97;;;1.70;;
18166;SDS011;9208;42.688;23.404;2023-03-11T02:45:23;2.27;;;1.50;;
18166;SDS011;9208;42.688;23.404;2023-03-11T02:47:50;2.20;;;1.70;;
18166;SDS011;9208;42.688;23.404;2023-03-11T02:50:18;1.80;;;1.70;;
18166;SDS011;9208;42.688;23.404;2023-03-11T02:52:44;1.87;;;1.73;;
18166;SDS011;9208;42.688;23.404;2023-03-11T02:55:13;2.77;;;1.90;;
18166;SDS011;9208;42.688;23.404;2023-03-11T02:57:42;2.53;;;1.57;;
18166;SDS011;9208;42.688;23.404;2023-03-11T03:00:07;2.43;;;2.00;;
18166;SDS011;9208;42.688;23.404;2023-03-11T03:02:38;1.70;;;1.60;;
18166;SDS011;9208;42.688;23.404;2023-03-11T03:05:03;2.27;;;2.00;;
18166;SDS011;9208;42.688;23.404;2023-03-11T03:07:30;3.73;;;2.83;;
18166;SDS011;9208;42.688;23.404;2023-03-11T03:09:55;4.93;;;3.80;;
18166;SDS011;9208;42.688;23.404;2023-03-11T03:12:21;4.60;;;4.10;;
18166;SDS011;9208;42.688;23.404;2023-03-11T03:14:46;4.97;;;4.23;;
18166;SDS011;9208;42.688;23.404;2023-03-11T03:17:12;5.67;;;5.10;;
18166;SDS011;9208;42.688;23.404;2023-03-11T03:19:37;7.00;;;5.50;;
18166;SDS011;9208;42.688;23.404;2023-03-11T03:22:02;6.43;;;4.63;;
18166;SDS011;9208;42.688;23.404;2023-03-11T03:24:28;5.70;;;4.13;;
18166;SDS011;9208;42.688;23.404;2023-03-11T03:26:53;4.80;;;3.53;;
18166;SDS011;9208;42.688;23.404;2023-03-11T03:29:19;4.07;;;3.63;;
18166;SDS011;9208;42.688;23.404;2023-03-11T03:31:44;3.17;;;2.87;;
18166;SDS011;9208;42.688;23.404;2023-03-11T03:34:10;3.20;;;2.80;;
18166;SDS011;9208;42.688;23.404;2023-03-11T03:36:35;3.60;;;3.30;;
18166;SDS011;9208;42.688;23.404;2023-03-11T03:39:00;3.70;;;3.00;;
18166;SDS011;9208;42.688;23.404;2023-03-11T03:41:26;3.57;;;3.10;;
18166;SDS011;9208;42.688;23.404;2023-03-11T03:43:52;3.80;;;3.50;;
18166;SDS011;9208;42.688;23.404;2023-03-11T03:46:18;3.10;;;2.90;;
18166;SDS011;9208;42.688;23.404;2023-03-11T03:48:45;3.60;;;3.10;;
18166;SDS011;9208;42.688;23.404;2023-03-11T03:51:11;4.87;;;3.50;;
18166;SDS011;9208;42.688;23.404;2023-03-11T03:53:37;3.53;;;3.03;;
18166;SDS011;9208;42.688;23.404;2023-03-11T03:56:03;4.83;;;3.00;;
18166;SDS011;9208;42.688;23.404;2023-03-11T03:58:34;3.53;;;2.93;;
18166;SDS011;9208;42.688;23.404;2023-03-11T04:00:59;4.00;;;3.60;;
18166;SDS011;9208;42.688;23.404;2023-03-11T04:03:26;3.43;;;3.13;;
18166;SDS011;9208;42.688;23.404;2023-03-11T04:05:52;5.60;;;2.97;;
18166;SDS011;9208;42.688;23.404;2023-03-11T04:08:17;4.00;;;2.80;;
18166;SDS011;9208;42.688;23.404;2023-03-11T04:10:43;4.47;;;2.50;;
18166;SDS011;9208;42.688;23.404;2023-03-11T04:13:09;4.37;;;3.07;;
18166;SDS011;9208;42.688;23.404;2023-03-11T04:15:36;3.20;;;2.40;;
18166;SDS011;9208;42.688;23.404;2023-03-11T04:18:03;3.50;;;2.60;;
18166;SDS011;9208;42.688;23.404;2023-03-11T04:20:28;4.00;;;2.30;;
18166;SDS011;9208;42.688;23.404;2023-03-11T04:22:53;3.17;;;2.50;;
18166;SDS011;9208;42.688;23.404;2023-03-11T04:25:19;3.77;;;2.30;;
18166;SDS011;9208;42.688;23.404;2023-03-11T04:27:44;2.40;;;2.20;;
18166;SDS011;9208;42.688;23.404;2023-03-11T04:30:13;2.80;;;2.50;;
18166;SDS011;9208;42.688;23.404;2023-03-11T04:32:39;3.50;;;3.20;;
18166;SDS011;9208;42.688;23.404;2023-03-11T04:35:05;3.10;;;2.57;;
18166;SDS011;9208;42.688;23.404;2023-03-11T04:37:30;3.00;;;2.70;;
18166;SDS011;9208;42.688;23.404;2023-03-11T04:39:57;3.77;;;3.43;;
18166;SDS011;9208;42.688;23.404;2023-03-11T04:42:22;3.87;;;3.57;;
18166;SDS011;9208;42.688;23.404;2023-03-11T04:44:48;3.77;;;3.40;;
18166;SDS011;9208;42.688;23.404;2023-03-11T04:47:13;3.67;;;3.37;;
18166;SDS011;9208;42.688;23.404;2023-03-11T04:49:39;3.20;;;2.83;;
18166;SDS011;9208;42.688;23.404;2023-03-11T04:52:07;3.83;;;2.83;;
18166;SDS011;9208;42.688;23.404;2023-03-11T04:54:32;3.17;;;2.90;;
18166;SDS011;9208;42.688;23.404;2023-03-11T04:56:57;4.10;;;2.57;;
18166;SDS011;9208;42.688;23.404;2023-03-11T04:59:23;2.77;;;2.30;;
18166;SDS011;9208;42.688;23.404;2023-03-11T05:01:48;2.40;;;2.00;;
18166;SDS011;9208;42.688;23.404;2023-03-11T05:04:14;2.53;;;2.03;;
18166;SDS011;9208;42.688;23.404;2023-03-11T05:06:39;2.57;;;1.80;;
18166;SDS011;9208;42.688;23.404;2023-03-11T05:09:05;2.33;;;2.13;;
18166;SDS011;9208;42.688;23.404;2023-03-11T05:11:30;3.63;;;2.50;;
18166;SDS011;9208;42.688;23.404;2023-03-11T05:13:58;2.43;;;2.20;;
18166;SDS011;9208;42.688;23.404;2023-03-11T05:16:24;2.20;;;2.10;;
18166;SDS011;9208;42.688;23.404;2023-03-11T05:18:49;3.10;;;2.00;;
18166;SDS011;9208;42.688;23.404;2023-03-11T05:21:15;2.20;;;2.00;;
18166;SDS011;9208;42.688;23.404;2023-03-11T05:23:40;2.87;;;2.20;;
18166;SDS011;9208;42.688;23.404;2023-03-11T05:26:06;2.10;;;1.90;;
18166;SDS011;9208;42.688;23.404;2023-03-11T05:28:31;2.10;;;1.73;;
18166;SDS011;9208;42.688;23.404;2023-03-11T05:30:56;2.37;;;2.00;;
18166;SDS011;9208;42.688;23.404;2023-03-11T05:33:22;3.83;;;2.00;;
18166;SDS011;9208;42.688;23.404;2023-03-11T05:35:47;2.20;;;2.00;;
18166;SDS011;9208;42.688;23.404;2023-03-11T05:38:13;4.03;;;1.70;;
18166;SDS011;9208;42.688;23.404;2023-03-11T05:40:38;2.87;;;1.90;;
18166;SDS011;9208;42.688;23.404;2023-03-11T05:43:03;2.13;;;2.00;;
18166;SDS011;9208;42.688;23.404;2023-03-11T05:45:29;2.83;;;2.53;;
18166;SDS011;9208;42.688;23.404;2023-03-11T05:47:54;3.07;;;2.30;;
18166;SDS011;9208;42.688;23.404;2023-03-11T05:50:20;3.30;;;2.30;;
18166;SDS011;9208;42.688;23.404;2023-03-11T05:52:45;2.00;;;1.80;;
18166;SDS011;9208;42.688;23.404;2023-03-11T05:55:11;1.70;;;1.60;;
18166;SDS011;9208;42.688;23.404;2023-03-11T05:57:37;1.30;;;1.20;;
18166;SDS011;9208;42.688;23.404;2023-03-11T06:00:06;1.40;;;1.30;;
18166;SDS011;9208;42.688;23.404;2023-03-11T06:02:39;1.50;;;1.40;;
18166;SDS011;9208;42.688;23.404;2023-03-11T06:05:05;1.50;;;1.40;;
18166;SDS011;9208;42.688;23.404;2023-03-11T06:07:32;1.20;;;1.20;;
18166;SDS011;9208;42.688;23.404;2023-03-11T06:09:59;1.30;;;1.20;;
18166;SDS011;9208;42.688;23.404;2023-03-11T06:12:24;1.90;;;1.40;;
18166;SDS011;9208;42.688;23.404;2023-03-11T06:14:49;1.47;;;1.37;;
18166;SDS011;9208;42.688;23.404;2023-03-11T06:17:17;1.40;;;1.30;;
18166;SDS011;9208;42.688;23.404;2023-03-11T06:19:43;1.40;;;1.30;;
18166;SDS011;9208;42.688;23.404;2023-03-11T06:22:08;1.70;;;1.60;;
18166;SDS011;9208;42.688;23.404;2023-03-11T06:24:34;1.40;;;1.30;;
18166;SDS011;9208;42.688;23.404;2023-03-11T06:27:00;1.50;;;1.40;;
18166;SDS011;9208;42.688;23.404;2023-03-11T06:29:28;1.70;;;1.27;;
18166;SDS011;9208;42.688;23.404;2023-03-11T06:31:54;1.77;;;1.43;;
18166;SDS011;9208;42.688;23.404;2023-03-11T06:34:19;3.27;;;1.70;;
18166;SDS011;9208;42.688;23.404;2023-03-11T06:36:45;1.80;;;1.70;;
18166;SDS011;9208;42.688;23.404;2023-03-11T06:39:11;1.97;;;1.77;;
18166;SDS011;9208;42.688;23.404;2023-03-11T06:41:38;2.03;;;1.93;;
18166;SDS011;9208;42.688;23.404;2023-03-11T06:44:04;3.07;;;2.77;;
18166;SDS011;9208;42.688;23.404;2023-03-11T06:46:30;3.53;;;2.90;;
18166;SDS011;9208;42.688;23.404;2023-03-11T06:48:55;4.13;;;3.40;;
18166;SDS011;9208;42.688;23.404;2023-03-11T06:51:21;3.20;;;2.90;;
18166;SDS011;9208;42.688;23.404;2023-03-11T06:53:47;2.07;;;1.90;;
18166;SDS011;9208;42.688;23.404;2023-03-11T06:56:14;4.00;;;1.97;;
18166;SDS011;9208;42.688;23.404;2023-03-11T06:58:40;2.63;;;1.83;;
18166;SDS011;9208;42.688;23.404;2023-03-11T07:01:07;2.53;;;2.33;;
18166;SDS011;9208;42.688;23.404;2023-03-11T07:03:35;3.93;;;2.20;;
18166;SDS011;9208;42.688;23.404;2023-03-11T07:06:01;2.63;;;2.30;;
18166;SDS011;9208;42.688;23.404;2023-03-11T07:08:26;2.67;;;2.40;;
18166;SDS011;9208;42.688;23.404;2023-03-11T07:11:06;2.97;;;2.67;;
18166;SDS011;9208;42.688;23.404;2023-03-11T07:13:32;3.93;;;2.33;;
18166;SDS011;9208;42.688;23.404;2023-03-11T07:16:08;3.33;;;2.50;;
18166;SDS011;9208;42.688;23.404;2023-03-11T07:18:36;3.00;;;1.97;;
18166;SDS011;9208;42.688;23.404;2023-03-11T07:21:02;1.63;;;1.40;;
18166;SDS011;9208;42.688;23.404;2023-03-11T07:23:29;3.03;;;1.70;;
18166;SDS011;9208;42.688;23.404;2023-03-11T07:25:54;2.20;;;1.70;;
18166;SDS011;9208;42.688;23.404;2023-03-11T07:28:21;1.27;;;1.17;;
18166;SDS011;9208;42.688;23.404;2023-03-11T07:30:47;3.13;;;1.53;;
18166;SDS011;9208;42.688;23.404;2023-03-11T07:33:13;1.40;;;1.30;;
18166;SDS011;9208;42.688;23.404;2023-03-11T07:35:39;3.47;;;2.50;;
18166;SDS011;9208;42.688;23.404;2023-03-11T07:38:04;3.40;;;2.67;;
18166;SDS011;9208;42.688;23.404;2023-03-11T07:40:30;2.63;;;2.27;;
18166;SDS011;9208;42.688;23.404;2023-03-11T07:42:58;2.47;;;2.03;;
18166;SDS011;9208;42.688;23.404;2023-03-11T07:45:24;2.83;;;2.50;;
18166;SDS011;9208;42.688;23.404;2023-03-11T07:47:49;3.00;;;2.40;;
18166;SDS011;9208;42.688;23.404;2023-03-11T07:50:14;2.70;;;2.30;;
18166;SDS011;9208;42.688;23.404;2023-03-11T07:52:41;2.93;;;2.30;;
18166;SDS011;9208;42.688;23.404;2023-03-11T07:55:09;2.83;;;2.47;;
18166;SDS011;9208;42.688;23.404;2023-03-11T07:57:35;3.37;;;2.50;;
18166;SDS011;9208;42.688;23.404;2023-03-11T08:00:00;3.23;;;2.40;;
18166;SDS011;9208;42.688;23.404;2023-03-11T08:02:26;2.50;;;2.10;;
18166;SDS011;9208;42.688;23.404;2023-03-11T08:04:51;2.00;;;1.80;;
18166;SDS011;9208;42.688;23.404;2023-03-11T08:07:17;1.60;;;1.30;;
18166;SDS011;9208;42.688;23.404;2023-03-11T08:09:44;0.80;;;0.80;;
18166;SDS011;9208;42.688;23.404;2023-03-11T08:12:10;1.23;;;1.13;;
18166;SDS011;9208;42.688;23.404;2023-03-11T08:14:35;1.33;;;0.83;;
18166;SDS011;9208;42.688;23.404;2023-03-11T08:17:01;1.10;;;1.10;;
18166;SDS011;9208;42.688;23.404;2023-03-11T08:19:26;1.10;;;0.83;;
18166;SDS011;9208;42.688;23.404;2023-03-11T08:21:51;1.10;;;0.80;;
18166;SDS011;9208;42.688;23.404;2023-03-11T08:24:17;1.20;;;1.10;;
18166;SDS011;9208;42.688;23.404;2023-03-11T08:26:42;1.20;;;1.10;;
18166;SDS011;9208;42.688;23.404;2023-03-11T08:29:08;1.23;;;1.17;;
18166;SDS011;9208;42.688;23.404;2023-03-11T08:31:33;1.03;;;1.03;;
18166;SDS011;9208;42.688;23.404;2023-03-11T08:34:00;1.27;;;0.97;;
18166;SDS011;9208;42.688;23.404;2023-03-11T08:36:28;1.17;;;1.07;;
18166;SDS011;9208;42.688;23.404;2023-03-11T08:38:54;1.00;;;1.00;;
18166;SDS011;9208;42.688;23.404;2023-03-11T08:41:19;2.23;;;1.10;;
18166;SDS011;9208;42.688;23.404;2023-03-11T08:43:45;1.23;;;1.10;;
18166;SDS011;9208;42.688;23.404;2023-03-11T08:46:20;1.30;;;1.20;;
18166;SDS011;9208;42.688;23.404;2023-03-11T08:48:51;1.57;;;1.20;;
18166;SDS011;9208;42.688;23.404;2023-03-11T08:51:17;1.97;;;1.13;;
18166;SDS011;9208;42.688;23.404;2023-03-11T08:53:43;1.70;;;1.10;;
18166;SDS011;9208;42.688;23.404;2023-03-11T08:56:09;1.20;;;1.10;;
18166;SDS011;9208;42.688;23.404;2023-03-11T08:58:34;1.30;;;1.20;;
18166;SDS011;9208;42.688;23.404;2023-03-11T09:01:00;2.80;;;1.30;;
18166;SDS011;9208;42.688;23.404;2023-03-11T09:03:26;1.13;;;1.03;;
18166;SDS011;9208;42.688;23.404;2023-03-11T09:05:59;0.97;;;0.97;;
18166;SDS011;9208;42.688;23.404;2023-03-11T09:08:26;1.10;;;1.10;;
18166;SDS011;9208;42.688;23.404;2023-03-11T09:10:52;3.27;;;1.33;;
18166;SDS011;9208;42.688;23.404;2023-03-11T09:13:18;2.77;;;1.80;;
18166;SDS011;9208;42.688;23.404;2023-03-11T09:15:43;1.40;;;1.23;;
18166;SDS011;9208;42.688;23.404;2023-03-11T09:18:12;1.30;;;1.20;;
18166;SDS011;9208;42.688;23.404;2023-03-11T09:20:39;1.90;;;1.10;;
18166;SDS011;9208;42.688;23.404;2023-03-11T09:23:09;2.27;;;1.07;;
18166;SDS011;9208;42.688;23.404;2023-03-11T09:25:36;1.90;;;1.40;;
18166;SDS011;9208;42.688;23.404;2023-03-11T09:28:04;1.20;;;1.10;;
18166;SDS011;9208;42.688;23.404;2023-03-11T09:30:30;1.50;;;1.03;;
18166;SDS011;9208;42.688;23.404;2023-03-11T09:32:55;2.27;;;1.10;;
18166;SDS011;9208;42.688;23.404;2023-03-11T09:35:21;2.20;;;1.30;;
18166;SDS011;9208;42.688;23.404;2023-03-11T09:37:47;1.43;;;1.23;;
18166;SDS011;9208;42.688;23.404;2023-03-11T09:40:19;2.03;;;1.33;;
18166;SDS011;9208;42.688;23.404;2023-03-11T09:45:52;2.43;;;1.23;;
18166;SDS011;9208;42.688;23.404;2023-03-11T09:48:34;0.90;;;0.90;;
18166;SDS011;9208;42.688;23.404;2023-03-11T09:51:04;1.43;;;1.00;;
18166;SDS011;9208;42.688;23.404;2023-03-11T09:53:43;1.00;;;1.00;;
18166;SDS011;9208;42.688;23.404;2023-03-11T09:56:11;1.60;;;1.27;;
18166;SDS011;9208;42.688;23.404;2023-03-11T09:58:49;1.10;;;1.10;;
18166;SDS011;9208;42.688;23.404;2023-03-11T10:01:22;1.20;;;1.10;;
18166;SDS011;9208;42.688;23.404;2023-03-11T10:03:53;1.70;;;1.20;;
18166;SDS011;9208;42.688;23.404;2023-03-11T10:06:22;1.30;;;1.00;;
18166;SDS011;9208;42.688;23.404;2023-03-11T10:08:56;1.90;;;1.00;;
18166;SDS011;9208;42.688;23.404;2023-03-11T10:25:18;1.13;;;1.03;;
18166;SDS011;9208;42.688;23.404;2023-03-11T10:27:51;2.43;;;1.40;;
18166;SDS011;9208;42.688;23.404;2023-03-11T10:33:11;1.83;;;1.20;;
18166;SDS011;9208;42.688;23.404;2023-03-11T10:35:45;1.80;;;1.10;;
18166;SDS011;9208;42.688;23.404;2023-03-11T10:38:23;1.80;;;1.40;;
18166;SDS011;9208;42.688;23.404;2023-03-11T10:40:56;1.20;;;1.10;;
18166;SDS011;9208;42.688;23.404;2023-03-11T10:43:27;2.07;;;1.17;;
18166;SDS011;9208;42.688;23.404;2023-03-11T10:45:57;1.47;;;1.37;;
18166;SDS011;9208;42.688;23.404;2023-03-11T10:48:23;1.27;;;1.17;;
18166;SDS011;9208;42.688;23.404;2023-03-11T10:53:25;3.50;;;2.03;;
18166;SDS011;9208;42.688;23.404;2023-03-11T10:55:55;2.83;;;1.60;;
18166;SDS011;9208;42.688;23.404;2023-03-11T10:58:25;1.80;;;1.70;;
18166;SDS011;9208;42.688;23.404;2023-03-11T11:01:06;5.33;;;2.20;;
18166;SDS011;9208;42.688;23.404;2023-03-11T11:03:42;2.97;;;1.40;;
18166;SDS011;9208;42.688;23.404;2023-03-11T11:08:49;1.10;;;1.00;;
18166;SDS011;9208;42.688;23.404;2023-03-11T11:11:31;2.97;;;1.20;;
18166;SDS011;9208;42.688;23.404;2023-03-11T11:13:59;1.93;;;1.00;;
18166;SDS011;9208;42.688;23.404;2023-03-11T11:16:24;1.80;;;1.10;;
18166;SDS011;9208;42.688;23.404;2023-03-11T11:18:58;1.97;;;1.30;;
18166;SDS011;9208;42.688;23.404;2023-03-11T11:21:37;1.07;;;1.03;;
18166;SDS011;9208;42.688;23.404;2023-03-11T11:24:19;1.30;;;1.20;;
18166;SDS011;9208;42.688;23.404;2023-03-11T11:27:08;1.50;;;1.30;;
18166;SDS011;9208;42.688;23.404;2023-03-11T11:29:42;1.10;;;1.00;;
18166;SDS011;9208;42.688;23.404;2023-03-11T11:35:05;2.90;;;1.33;;
18166;SDS011;9208;42.688;23.404;2023-03-11T11:37:43;1.30;;;1.20;;
18166;SDS011;9208;42.688;23.404;2023-03-11T11:42:45;2.03;;;1.37;;
18166;SDS011;9208;42.688;23.404;2023-03-11T11:45:19;1.80;;;1.20;;
18166;SDS011;9208;42.688;23.404;2023-03-11T11:47:53;1.30;;;1.20;;
18166;SDS011;9208;42.688;23.404;2023-03-11T11:50:25;1.17;;;1.10;;
18166;SDS011;9208;42.688;23.404;2023-03-11T11:55:49;1.93;;;1.47;;
18166;SDS011;9208;42.688;23.404;2023-03-11T11:58:17;1.90;;;1.40;;
18166;SDS011;9208;42.688;23.404;2023-03-11T12:08:46;2.30;;;1.60;;
18166;SDS011;9208;42.688;23.404;2023-03-11T12:11:41;1.63;;;1.00;;
18166;SDS011;9208;42.688;23.404;2023-03-11T12:16:41;1.13;;;1.13;;
18166;SDS011;9208;42.688;23.404;2023-03-11T12:26:51;2.50;;;1.43;;
18166;SDS011;9208;42.688;23.404;2023-03-11T12:32:05;22.37;;;4.00;;
18166;SDS011;9208;42.688;23.404;2023-03-11T12:34:33;3.40;;;1.67;;
18166;SDS011;9208;42.688;23.404;2023-03-11T12:37:00;4.53;;;1.50;;
18166;SDS011;9208;42.688;23.404;2023-03-11T12:39:29;2.17;;;1.10;;
18166;SDS011;9208;42.688;23.404;2023-03-11T12:44:35;2.47;;;1.20;;
18166;SDS011;9208;42.688;23.404;2023-03-11T12:49:37;3.27;;;1.40;;
18166;SDS011;9208;42.688;23.404;2023-03-11T12:54:48;4.10;;;1.90;;
18166;SDS011;9208;42.688;23.404;2023-03-11T12:57:52;2.53;;;1.20;;
18166;SDS011;9208;42.688;23.404;2023-03-11T13:08:47;1.80;;;1.10;;
18166;SDS011;9208;42.688;23.404;2023-03-11T13:16:42;1.83;;;1.30;;
18166;SDS011;9208;42.688;23.404;2023-03-11T13:21:56;3.63;;;1.80;;
18166;SDS011;9208;42.688;23.404;2023-03-11T13:27:13;2.90;;;1.30;;
18166;SDS011;9208;42.688;23.404;2023-03-11T13:33:36;1.57;;;1.03;;
18166;SDS011;9208;42.688;23.404;2023-03-11T13:36:06;1.60;;;1.30;;
18166;SDS011;9208;42.688;23.404;2023-03-11T13:41:26;1.37;;;1.20;;
18166;SDS011;9208;42.688;23.404;2023-03-11T13:43:59;1.73;;;1.37;;
18166;SDS011;9208;42.688;23.404;2023-03-11T13:46:36;2.47;;;1.43;;
18166;SDS011;9208;42.688;23.404;2023-03-11T13:51:58;1.83;;;1.20;;
18166;SDS011;9208;42.688;23.404;2023-03-11T13:54:31;1.40;;;1.30;;
18166;SDS011;9208;42.688;23.404;2023-03-11T13:56:58;2.47;;;1.37;;
18166;SDS011;9208;42.688;23.404;2023-03-11T13:59:27;3.37;;;1.70;;
18166;SDS011;9208;42.688;23.404;2023-03-11T14:02:20;2.23;;;1.47;;
18166;SDS011;9208;42.688;23.404;2023-03-11T14:04:47;1.17;;;0.97;;
18166;SDS011;9208;42.688;23.404;2023-03-11T14:09:50;1.80;;;1.30;;
18166;SDS011;9208;42.688;23.404;2023-03-11T14:12:15;1.80;;;1.70;;
18166;SDS011;9208;42.688;23.404;2023-03-11T14:14:44;2.77;;;1.90;;
18166;SDS011;9208;42.688;23.404;2023-03-11T14:17:16;3.07;;;2.10;;
18166;SDS011;9208;42.688;23.404;2023-03-11T14:19:43;3.83;;;2.70;;
18166;SDS011;9208;42.688;23.404;2023-03-11T14:22:36;8.33;;;3.80;;
18166;SDS011;9208;42.688;23.404;2023-03-11T14:25:06;9.00;;;4.23;;
18166;SDS011;9208;42.688;23.404;2023-03-11T14:27:34;5.30;;;3.53;;
18166;SDS011;9208;42.688;23.404;2023-03-11T14:30:03;5.03;;;3.30;;
18166;SDS011;9208;42.688;23.404;2023-03-11T14:32:30;9.70;;;4.77;;
18166;SDS011;9208;42.688;23.404;2023-03-11T14:34:57;8.13;;;5.03;;
18166;SDS011;9208;42.688;23.404;2023-03-11T14:37:29;6.57;;;4.60;;
18166;SDS011;9208;42.688;23.404;2023-03-11T14:39:58;6.23;;;3.80;;
18166;SDS011;9208;42.688;23.404;2023-03-11T14:42:28;4.07;;;3.57;;
18166;SDS011;9208;42.688;23.404;2023-03-11T14:47:37;1.77;;;1.50;;
18166;SDS011;9208;42.688;23.404;2023-03-11T14:50:12;2.50;;;1.70;;
18166;SDS011;9208;42.688;23.404;2023-03-11T14:55:28;3.00;;;2.03;;
18166;SDS011;9208;42.688;23.404;2023-03-11T14:58:14;2.03;;;1.70;;
18166;SDS011;9208;42.688;23.404;2023-03-11T15:01:14;3.43;;;2.33;;
18166;SDS011;9208;42.688;23.404;2023-03-11T15:03:50;4.00;;;2.80;;
18166;SDS011;9208;42.688;23.404;2023-03-11T15:06:29;3.70;;;3.37;;
18166;SDS011;9208;42.688;23.404;2023-03-11T15:08:57;3.93;;;3.30;;
18166;SDS011;9208;42.688;23.404;2023-03-11T15:11:27;3.67;;;3.07;;
18166;SDS011;9208;42.688;23.404;2023-03-11T15:13:53;3.53;;;3.13;;
18166;SDS011;9208;42.688;23.404;2023-03-11T15:16:34;3.17;;;2.87;;
18166;SDS011;9208;42.688;23.404;2023-03-11T15:19:19;3.53;;;2.23;;
18166;SDS011;9208;42.688;23.404;2023-03-11T15:21:45;5.13;;;2.57;;
18166;SDS011;9208;42.688;23.404;2023-03-11T15:24:17;4.80;;;2.73;;
18166;SDS011;9208;42.688;23.404;2023-03-11T15:26:52;5.00;;;2.57;;
18166;SDS011;9208;42.688;23.404;2023-03-11T15:29:20;5.43;;;3.20;;
18166;SDS011;9208;42.688;23.404;2023-03-11T15:31:45;4.27;;;3.50;;
18166;SDS011;9208;42.688;23.404;2023-03-11T15:36:43;5.67;;;3.03;;
18166;SDS011;9208;42.688;23.404;2023-03-11T15:39:26;3.87;;;2.80;;
18166;SDS011;9208;42.688;23.404;2023-03-11T15:44:27;6.47;;;3.40;;
18166;SDS011;9208;42.688;23.404;2023-03-11T15:46:57;4.20;;;3.53;;
18166;SDS011;9208;42.688;23.404;2023-03-11T15:49:24;5.40;;;3.30;;
18166;SDS011;9208;42.688;23.404;2023-03-11T15:51:50;4.87;;;3.40;;
18166;SDS011;9208;42.688;23.404;2023-03-11T15:54:15;4.87;;;2.60;;
18166;SDS011;9208;42.688;23.404;2023-03-11T15:56:40;3.80;;;2.97;;
18166;SDS011;9208;42.688;23.404;2023-03-11T15:59:09;3.47;;;3.00;;
18166;SDS011;9208;42.688;23.404;2023-03-11T16:01:38;5.30;;;2.90;;
18166;SDS011;9208;42.688;23.404;2023-03-11T16:04:05;5.03;;;3.40;;
18166;SDS011;9208;42.688;23.404;2023-03-11T16:06:35;6.30;;;4.07;;
18166;SDS011;9208;42.688;23.404;2023-03-11T16:09:01;4.67;;;4.27;;
18166;SDS011;9208;42.688;23.404;2023-03-11T16:11:26;6.43;;;5.77;;
18166;SDS011;9208;42.688;23.404;2023-03-11T16:13:56;7.10;;;6.40;;
18166;SDS011;9208;42.688;23.404;2023-03-11T16:16:21;4.50;;;4.10;;
18166;SDS011;9208;42.688;23.404;2023-03-11T16:18:47;4.90;;;4.60;;
18166;SDS011;9208;42.688;23.404;2023-03-11T16:21:13;4.93;;;4.43;;
18166;SDS011;9208;42.688;23.404;2023-03-11T16:23:41;4.83;;;4.53;;
18166;SDS011;9208;42.688;23.404;2023-03-11T16:26:10;4.50;;;4.10;;
18166;SDS011;9208;42.688;23.404;2023-03-11T16:28:36;5.00;;;4.60;;
18166;SDS011;9208;42.688;23.404;2023-03-11T16:31:02;5.10;;;4.70;;
18166;SDS011;9208;42.688;23.404;2023-03-11T16:33:29;3.60;;;3.30;;
18166;SDS011;9208;42.688;23.404;2023-03-11T16:35:54;3.87;;;2.90;;
18166;SDS011;9208;42.688;23.404;2023-03-11T16:38:20;3.17;;;2.50;;
18166;SDS011;9208;42.688;23.404;2023-03-11T16:41:00;2.80;;;2.50;;
18166;SDS011;9208;42.688;23.404;2023-03-11T16:43:27;2.63;;;2.27;;
18166;SDS011;9208;42.688;23.404;2023-03-11T16:45:54;7.20;;;4.70;;